June 30, 2022

Time Code Weather Temp. Visibility Ceiling Wind METAR/SPECI
5:30 am
V
59 °F 6¼ mi+ 6,200 ft 290° 290° 7 kt METAR LFBA 300330Z AUTO 29007KT 9999 FEW046/// OVC062/// //////CB 15/13 Q1014
5:00 am
V
59 °F 6¼ mi+ 4,400 ft 300° 300° 8 kt METAR LFBA 300300Z AUTO 30008KT 9999 BKN044 OVC056 15/13 Q1014
4:30 am
V
59 °F 6¼ mi+ 4,400 ft 300° 300° 10 kt METAR LFBA 300230Z AUTO 30010KT 9999 BKN044 OVC060 15/13 Q1014
4:00 am
V
61 °F 6¼ mi+ 4,200 ft 300° 300° 8 kt METAR LFBA 300200Z AUTO 30008KT 9999 FEW013 OVC042 16/14 Q1014
3:30 am
V
61 °F 6¼ mi+ 4,200 ft 300° 300° 8 kt METAR LFBA 300130Z AUTO 30008KT 9999 OVC042 16/14 Q1014
3:00 am
V
61 °F 6¼ mi+ 4,100 ft 310° 310° 6 kt METAR LFBA 300100Z AUTO 31006KT 9999 BKN041/// BKN060/// OVC072/// ///TCU 16/14 Q1015
2:30 am
V
61 °F 6¼ mi+ 4,100 ft 290° 290° 6 kt METAR LFBA 300030Z AUTO 29006KT 9999 BKN041 OVC060 16/15 Q1015
2:00 am
V
61 °F 6¼ mi+ 6,200 ft 290° 290° 7 kt METAR LFBA 300000Z AUTO 29007KT 9999 SCT040 OVC062 16/15 Q1015
1:30 am
V
61 °F 6¼ mi+ 3,400 ft 280° 280° 7 kt METAR LFBA 292330Z AUTO 28007KT 250V310 9999 OVC034/// ///TCU 16/14 Q1015
1:00 am
M
61 °F 6¼ mi+ 2,100 ft 310° 310° 9 kt METAR LFBA 292300Z AUTO 31009KT 9999 -RA BKN021/// BKN039/// BKN058/// //////TCU 16/14 Q1015
12:30 am
M
64 °F 6¼ mi+ 2,600 ft 300° 300° 13 kt METAR LFBA 292230Z AUTO 30013KT 9999 FEW018/// BKN026/// OVC058/// //////CB 18/14 Q1015
12:00 am
M
66 °F 6¼ mi+ 2,500 ft 300° 300° 11 kt METAR LFBA 292200Z AUTO 30011KT 9999 BKN025/// OVC060/// //////CB 19/15 Q1015

June 29, 2022

Time Code Weather Temp. Visibility Ceiling Wind METAR/SPECI
11:30 pm
V
68 °F 6¼ mi+ - 320° 320° 6 kt METAR LFBA 292130Z AUTO 32006KT 280V010 9999 VCTS ///CB 20/15 Q1014
11:00 pm
V
68 °F 6¼ mi+ - 310° 310° 7 kt METAR LFBA 292100Z AUTO 31007KT 9999 ///CB 20/15 Q1014
10:30 pm
V
70 °F 6¼ mi+ - 320° 320° 9 kt METAR LFBA 292030Z AUTO 32009KT CAVOK 21/15 Q1013
10:00 pm
V
70 °F 6¼ mi+ - 320° 320° 10 kt METAR LFBA 292000Z AUTO 32010KT 9999 //////TCU 21/16 Q1013 TEMPO 4000 TSRA BKN014 BKN030CB
9:30 pm
V
70 °F 6¼ mi+ - 320° 320° 10 kt METAR LFBA 291930Z AUTO 32010KT 290V350 CAVOK 21/16 Q1013 TEMPO 4000 TSRA BKN014 BKN030CB
9:00 pm
V
72 °F 6¼ mi+ - 330° 330° 14 kt METAR LFBA 291900Z AUTO 33014KT CAVOK 22/15 Q1013 NOSIG
8:30 pm
V
75 °F 6¼ mi+ - 320° 320° 9 kt METAR LFBA 291830Z AUTO 32009KT CAVOK 24/14 Q1013 NOSIG
8:00 pm
V
77 °F 6¼ mi+ - 340° 340° 11 kt METAR LFBA 291800Z AUTO 34011KT 310V010 CAVOK 25/13 Q1013 NOSIG
7:30 pm
V
79 °F 6¼ mi+ - 340° 340° 10 kt METAR LFBA 291730Z AUTO 34010KT CAVOK 26/13 Q1013 NOSIG
7:00 pm
V
79 °F 6¼ mi+ - 330° 330° 8 kt METAR LFBA 291700Z AUTO 33008KT CAVOK 26/14 Q1013 NOSIG
6:30 pm
V
81 °F 6¼ mi+ - 320° 320° 8 kt METAR LFBA 291630Z AUTO 32008KT 280V340 CAVOK 27/15 Q1013 NOSIG
6:00 pm
V
81 °F 6¼ mi+ - 320° 320° 10 kt METAR LFBA 291600Z AUTO 32010KT CAVOK 27/14 Q1013 NOSIG
5:30 pm
V
81 °F 6¼ mi+ - 320° 320° 5 kt METAR LFBA 291530Z AUTO 32005KT 260V030 CAVOK 27/14 Q1013 NOSIG
5:00 pm
V
81 °F 6¼ mi+ - 280° 280° 6 kt METAR LFBA 291500Z AUTO 28006KT 230V340 CAVOK 27/14 Q1013 NOSIG
4:30 pm
V
81 °F 6¼ mi+ - 290° 290° 3 kt METAR LFBA 291430Z AUTO 29003KT 220V360 CAVOK 27/14 Q1013 NOSIG
4:00 pm
V
81 °F 6¼ mi+ - 020° 020° 4 kt METAR LFBA 291400Z AUTO 02004KT 310V080 CAVOK 27/14 Q1013 NOSIG
3:30 pm
V
81 °F 6¼ mi+ - 320° 320° 6 kt METAR LFBA 291330Z AUTO 32006KT 220V020 CAVOK 27/15 Q1013 NOSIG
3:00 pm
V
81 °F 6¼ mi+ - 020° 020° 3 kt METAR LFBA 291300Z AUTO 02003KT 320V100 CAVOK 27/15 Q1014 NOSIG
2:30 pm
V
79 °F 6¼ mi+ 4,900 ft Var Var 2 kt METAR LFBA 291230Z AUTO VRB02KT 9999 BKN049 26/14 Q1014 NOSIG
2:00 pm
V
79 °F 6¼ mi+ 4,700 ft Var Var 3 kt METAR LFBA 291200Z AUTO VRB03KT 9999 BKN047 26/14 Q1015 NOSIG
1:30 pm
V
77 °F 6¼ mi+ - Var Var 3 kt METAR LFBA 291130Z AUTO VRB03KT 9999 SCT044 25/14 Q1015 NOSIG
1:00 pm
V
77 °F 6¼ mi+ - Var Var 2 kt METAR LFBA 291100Z AUTO VRB02KT CAVOK 25/16 Q1015 NOSIG
12:30 pm
V
77 °F 6¼ mi+ - Var Var 3 kt METAR LFBA 291030Z AUTO VRB03KT CAVOK 25/15 Q1015 NOSIG
12:00 pm
V
75 °F 6¼ mi+ - 240° 240° 3 kt METAR LFBA 291000Z AUTO 24003KT 170V300 CAVOK 24/15 Q1016 NOSIG
11:30 am
V
73 °F 6¼ mi+ - Var Var 3 kt METAR LFBA 290930Z AUTO VRB03KT CAVOK 23/14 Q1016 NOSIG
11:00 am
V
73 °F 6¼ mi+ - Var Var 2 kt METAR LFBA 290900Z AUTO VRB02KT CAVOK 23/14 Q1016 NOSIG
10:30 am
V
73 °F 6¼ mi+ - Var Var 2 kt METAR LFBA 290830Z AUTO VRB02KT CAVOK 23/14 Q1016 NOSIG
10:00 am
V
70 °F 6¼ mi+ - 090° 090° 3 kt METAR LFBA 290800Z AUTO 09003KT 340V130 CAVOK 21/14 Q1016 NOSIG
9:30 am
V
68 °F 6¼ mi+ - Var 000° 0 kt METAR LFBA 290730Z AUTO 00000KT CAVOK 20/15 Q1016 NOSIG
9:00 am
V
66 °F 6¼ mi+ - Var 000° 0 kt METAR LFBA 290700Z AUTO 00000KT CAVOK 19/15 Q1016 NOSIG
8:30 am
V
61 °F 6¼ mi+ - Var Var 2 kt METAR LFBA 290630Z AUTO VRB02KT CAVOK 16/14 Q1016 NOSIG
8:00 am
V
59 °F 6¼ mi+ - Var 000° 0 kt METAR LFBA 290600Z AUTO 00000KT CAVOK 15/14 Q1016 NOSIG
7:30 am
V
59 °F 6¼ mi+ - Var 000° 0 kt METAR LFBA 290530Z AUTO 00000KT CAVOK 15/15 Q1016
7:00 am
V
54 °F 6¼ mi+ - 100° 100° 2 kt METAR LFBA 290500Z AUTO 10002KT CAVOK 12/12 Q1016
6:30 am
V
54 °F 6¼ mi+ - 310° 310° 1 kt METAR LFBA 290430Z AUTO 31001KT CAVOK 12/12 Q1016
6:00 am
V
54 °F 5⅝ mi - Var Var 1 kt METAR LFBA 290400Z AUTO VRB01KT 9000 NSC 12/12 Q1016
5:30 am
V
54 °F 6¼ mi+ - 270° 270° 2 kt METAR LFBA 290330Z AUTO 27002KT CAVOK 12/12 Q1016
5:00 am
V
55 °F 6¼ mi+ - 300° 300° 2 kt METAR LFBA 290300Z AUTO 30002KT CAVOK 13/12 Q1016
4:30 am
V
55 °F 6¼ mi+ - 280° 280° 2 kt METAR LFBA 290230Z AUTO 28002KT CAVOK 13/12 Q1016
4:00 am
V
55 °F 6¼ mi+ - Var 000° 0 kt METAR LFBA 290200Z AUTO 00000KT CAVOK 13/12 Q1016
3:30 am
V
55 °F 6¼ mi+ - Var 000° 0 kt METAR LFBA 290130Z AUTO 00000KT CAVOK 13/12 Q1017
3:00 am
V
57 °F 6¼ mi+ - Var Var 2 kt METAR LFBA 290100Z AUTO VRB02KT CAVOK 14/13 Q1017
2:30 am
V
57 °F 6¼ mi+ - 010° 010° 1 kt METAR LFBA 290030Z AUTO 01001KT CAVOK 14/12 Q1017
2:00 am
V
57 °F 6¼ mi+ - 210° 210° 1 kt METAR LFBA 290000Z AUTO 21001KT CAVOK 14/13 Q1017
1:30 am
V
59 °F 6¼ mi+ - 060° 060° 1 kt METAR LFBA 282330Z AUTO 06001KT CAVOK 15/13 Q1017
1:00 am
V
59 °F 6¼ mi+ - Var 000° 0 kt METAR LFBA 282300Z AUTO 00000KT CAVOK 15/13 Q1018
12:30 am
V
59 °F 6¼ mi+ - Var 000° 0 kt METAR LFBA 282230Z AUTO 00000KT CAVOK 15/13 Q1018
12:00 am
V
61 °F 6¼ mi+ - Var 000° 0 kt METAR LFBA 282200Z AUTO 00000KT CAVOK 16/13 Q1018

June 28, 2022

Time Code Weather Temp. Visibility Ceiling Wind METAR/SPECI
11:30 pm
V
63 °F 6¼ mi+ - 080° 080° 1 kt METAR LFBA 282130Z AUTO 08001KT CAVOK 17/13 Q1018
11:00 pm
V
63 °F 6¼ mi+ - Var 000° 0 kt METAR LFBA 282100Z AUTO 00000KT CAVOK 17/13 Q1018
10:30 pm
V
66 °F 6¼ mi+ - Var Var 1 kt METAR LFBA 282030Z AUTO VRB01KT CAVOK 19/13 Q1018
10:00 pm
M
70 °F 3⅛ mi - Var Var 2 kt METAR LFBA 282000Z AUTO VRB02KT 5000 HZ NSC 21/12 Q1017 NOSIG
9:30 pm
V
73 °F 6¼ mi+ - 340° 340° 3 kt METAR LFBA 281930Z AUTO 34003KT CAVOK 23/12 Q1017 NOSIG
9:00 pm
V
75 °F 6¼ mi+ - 350° 350° 3 kt METAR LFBA 281900Z AUTO 35003KT CAVOK 24/12 Q1017 NOSIG
8:30 pm
V
75 °F 6¼ mi+ - 350° 350° 5 kt METAR LFBA 281830Z AUTO 35005KT 310V020 CAVOK 24/12 Q1017 NOSIG
8:00 pm
V
77 °F 6¼ mi+ - 340° 340° 9 kt METAR LFBA 281800Z AUTO 34009KT CAVOK 25/12 Q1017 NOSIG
7:30 pm
V
79 °F 6¼ mi+ - 320° 320° 6 kt METAR LFBA 281730Z AUTO 32006KT 270V030 CAVOK 26/12 Q1017 NOSIG
7:00 pm
V
77 °F 6¼ mi+ - 340° 340° 6 kt METAR LFBA 281700Z AUTO 34006KT 280V020 CAVOK 25/12 Q1017 NOSIG
6:30 pm
V
77 °F 6¼ mi+ - 340° 340° 5 kt METAR LFBA 281630Z AUTO 34005KT 290V040 CAVOK 25/12 Q1017 NOSIG
6:00 pm
V
79 °F 6¼ mi+ - 360° 360° 8 kt METAR LFBA 281600Z AUTO 36008KT 320V030 CAVOK 26/12 Q1017 NOSIG
5:30 pm
V
77 °F 6¼ mi+ - 340° 340° 8 kt METAR LFBA 281530Z AUTO 34008KT 300V020 CAVOK 25/12 Q1017 NOSIG
5:00 pm
V
77 °F 6¼ mi+ - 290° 290° 5 kt METAR LFBA 281500Z AUTO 29005KT 230V330 CAVOK 25/12 Q1017 NOSIG
4:30 pm
V
75 °F 6¼ mi+ - 330° 330° 7 kt METAR LFBA 281430Z AUTO 33007KT 260V020 CAVOK 24/11 Q1018 NOSIG
4:00 pm
V
79 °F 6¼ mi+ - 340° 340° 5 kt METAR LFBA 281400Z AUTO 34005KT 270V040 CAVOK 26/13 Q1018 NOSIG
3:30 pm
V
75 °F 6¼ mi+ - 280° 280° 6 kt METAR LFBA 281330Z AUTO 28006KT 240V330 CAVOK 24/11 Q1018 NOSIG
3:00 pm
V
77 °F 6¼ mi+ - 310° 310° 6 kt METAR LFBA 281300Z AUTO 31006KT 250V350 CAVOK 25/12 Q1018 NOSIG
2:30 pm
V
77 °F 6¼ mi+ - 320° 320° 5 kt METAR LFBA 281230Z AUTO 32005KT 250V040 CAVOK 25/12 Q1019 NOSIG
2:00 pm
V
75 °F 6¼ mi+ - Var Var 5 - 22 kt METAR LFBA 281200Z AUTO VRB05G22KT CAVOK 24/11 Q1019 NOSIG
1:30 pm
V
75 °F 6¼ mi+ - 010° 010° 6 kt METAR LFBA 281130Z AUTO 01006KT 260V060 CAVOK 24/11 Q1019 NOSIG
1:00 pm
V
75 °F 6¼ mi+ - 310° 310° 6 kt METAR LFBA 281100Z AUTO 31006KT 230V010 CAVOK 24/11 Q1019 NOSIG
12:30 pm
V
75 °F 6¼ mi+ - 340° 340° 7 kt METAR LFBA 281030Z AUTO 34007KT 230V020 CAVOK 24/11 Q1019 NOSIG
12:00 pm
V
73 °F 6¼ mi+ - Var Var 5 kt METAR LFBA 281000Z AUTO VRB05KT CAVOK 23/12 Q1020 NOSIG
11:30 am
V
72 °F 6¼ mi+ - 320° 320° 4 kt METAR LFBA 280930Z AUTO 32004KT 260V060 CAVOK 22/11 Q1020 NOSIG
11:00 am
V
70 °F 6¼ mi+ - Var Var 3 kt METAR LFBA 280900Z AUTO VRB03KT CAVOK 21/12 Q1020 NOSIG
10:30 am
V
70 °F 6¼ mi+ - Var Var 2 kt METAR LFBA 280830Z AUTO VRB02KT CAVOK 21/13 Q1020 NOSIG
10:00 am
V
66 °F 6¼ mi+ - Var Var 2 kt METAR LFBA 280800Z AUTO VRB02KT CAVOK 19/13 Q1020 NOSIG
9:30 am
V
64 °F 6¼ mi+ - 290° 290° 3 kt METAR LFBA 280730Z AUTO 29003KT 250V350 CAVOK 18/12 Q1021 NOSIG
9:00 am
V
63 °F 6¼ mi+ - 300° 300° 4 kt METAR LFBA 280700Z AUTO 30004KT 270V330 CAVOK 17/12 Q1021 NOSIG
8:30 am
V
61 °F 6¼ mi+ - 310° 310° 6 kt METAR LFBA 280630Z AUTO 31006KT CAVOK 16/12 Q1021 NOSIG
8:00 am
V
59 °F 6¼ mi+ - 310° 310° 6 kt METAR LFBA 280600Z AUTO 31006KT 270V330 CAVOK 15/11 Q1021 NOSIG
7:30 am
V
59 °F 6¼ mi+ - 290° 290° 6 kt METAR LFBA 280530Z AUTO 29006KT CAVOK 15/12 Q1021 NOSIG
7:00 am
V
57 °F 6¼ mi+ - 290° 290° 6 kt METAR LFBA 280500Z AUTO 29006KT CAVOK 14/12 Q1021
6:30 am
V
57 °F 6¼ mi+ - 290° 290° 4 kt METAR LFBA 280430Z AUTO 29004KT CAVOK 14/11 Q1021
6:00 am
V
57 °F 6¼ mi+ - 290° 290° 3 kt METAR LFBA 280400Z AUTO 29003KT CAVOK 14/11 Q1021
5:30 am
V
57 °F 6¼ mi+ - 310° 310° 4 kt METAR LFBA 280330Z AUTO 31004KT CAVOK 14/12 Q1021
5:00 am
V
59 °F 6¼ mi+ - 300° 300° 3 kt METAR LFBA 280300Z AUTO 30003KT CAVOK 15/12 Q1021
4:30 am
V
61 °F 6¼ mi+ - 300° 300° 4 kt METAR LFBA 280230Z AUTO 30004KT CAVOK 16/12 Q1022
4:00 am
V
61 °F 6¼ mi+ - 310° 310° 5 kt METAR LFBA 280200Z AUTO 31005KT CAVOK 16/12 Q1022
3:30 am
V
61 °F 6¼ mi+ - 300° 300° 5 kt METAR LFBA 280130Z AUTO 30005KT CAVOK 16/12 Q1022
3:00 am
V
63 °F 6¼ mi+ - 300° 300° 6 kt METAR LFBA 280100Z AUTO 30006KT CAVOK 17/11 Q1022
2:30 am
V
63 °F 6¼ mi+ - 310° 310° 6 kt METAR LFBA 280030Z AUTO 31006KT CAVOK 17/11 Q1022
2:00 am
V
63 °F 6¼ mi+ - 300° 300° 5 kt METAR LFBA 280000Z AUTO 30005KT CAVOK 17/12 Q1022
1:30 am
V
64 °F 6¼ mi+ - 300° 300° 5 kt METAR LFBA 272330Z AUTO 30005KT CAVOK 18/11 Q1023
1:00 am
V
64 °F 6¼ mi+ - 290° 290° 6 kt METAR LFBA 272300Z AUTO 29006KT CAVOK 18/11 Q1023
12:30 am
V
64 °F 6¼ mi+ - 300° 300° 6 kt METAR LFBA 272230Z AUTO 30006KT CAVOK 18/12 Q1023
12:00 am
V
66 °F 6¼ mi+ - 290° 290° 7 kt METAR LFBA 272200Z AUTO 29007KT CAVOK 19/13 Q1023
Older data

Download our app

Easy access to all aviation weather on your mobile phone and tablet.
With many features not available on the website, like offline support and a personal airport list.

We and third parties follow your internet behavior on our website with cookies. If you continue, we assume you agree with our cookie policy. Learn more